Darmstadt, Indiana
Current Conditions -  °F | °C
As of 10:54 AM on Sunday 23 Nov 2014 (Local Time) from KEVV Reporting Station
Overcast Overcast  
Wind Chill: 53°   Ceiling: 2300
Heat Index: 53°   Visibility: 10mi
Dew Point: 48°   Wind: 3mph
Humidity: 83%   Direction: 90°E
Pressure: 29.73"   Gusts: NA
Location:  38.1195°N, 87.5368°W
Report Text: KEVV 231654Z 09003KT 10SM OVC023 12/09 A2973 RMK AO2 RAE21 PRESFR SLP065 P0000 T01170089
Loading
Personal Weather Stations






























Interactive Weather Map New forecast layout! Learn more

10-Day Weather Forecast

Advertisements
Track Severe Weather on mobile